Time;durP1;ratioP1;P1;durP2;ratioP2;P2;SDS_P1;SDS_P2;PMS_P1;PMS_P2;Temp;Humidity;BMP_temperature;BMP_pressure;BME280_temperature;BME280_humidity;BME280_pressure;Samples;Min_cycle;Max_cycle;Signal;HPM_P1;HPM_P2
2023/08/20 00:01:27;;;;;;;15.73;8.20;;;;;;;28.06;42.78;99045.97;4844170;29;20698;-82
2023/08/20 00:03:54;;;;;;;11.95;7.18;;;;;;;28.06;42.34;99037.88;4844619;29;20185;-83
2023/08/20 00:06:21;;;;;;;13.63;7.97;;;;;;;28.05;42.51;99041.59;4847075;29;20272;-83
2023/08/20 00:08:48;;;;;;;15.98;8.77;;;;;;;27.95;42.63;99038.38;4858156;29;20253;-83
2023/08/20 00:11:19;;;;;;;14.68;7.70;;;;;;;27.88;42.82;99032.91;4828546;29;20200;-83
2023/08/20 00:13:46;;;;;;;15.23;8.30;;;;;;;27.82;42.66;99035.56;4845218;29;20169;-83
2023/08/20 00:16:12;;;;;;;12.13;7.70;;;;;;;27.82;42.77;99022.91;4844783;29;20229;-83
2023/08/20 00:18:39;;;;;;;12.27;8.60;;;;;;;27.83;42.66;99023.75;4844667;29;20185;-83
2023/08/20 00:21:06;;;;;;;12.90;8.13;;;;;;;27.79;42.68;99022.47;4844741;29;20277;-83
2023/08/20 00:23:37;;;;;;;15.33;8.43;;;;;;;27.77;42.70;99024.53;4830457;29;20203;-83
2023/08/20 00:26:04;;;;;;;13.70;7.60;;;;;;;27.71;43.07;99022.59;4836725;29;20190;-82
2023/08/20 00:28:33;;;;;;;15.83;8.70;;;;;;;27.68;43.15;99025.66;4828532;29;20264;-82
2023/08/20 00:30:59;;;;;;;12.23;7.10;;;;;;;27.61;42.93;99022.06;4828133;29;20287;-83
2023/08/20 00:33:26;;;;;;;13.07;7.70;;;;;;;27.59;43.28;99019.59;4844290;29;20231;-83
2023/08/20 00:35:53;;;;;;;11.57;7.07;;;;;;;27.55;43.41;99015.59;4844901;29;20219;-83
2023/08/20 00:38:20;;;;;;;9.60;6.53;;;;;;;27.55;43.55;99017.44;4844328;29;20189;-83
2023/08/20 00:40:46;;;;;;;9.90;6.30;;;;;;;27.53;43.40;99016.81;4844354;29;20200;-83
2023/08/20 00:43:13;;;;;;;12.87;7.50;;;;;;;27.50;43.15;99017.19;4844306;29;20223;-83
2023/08/20 00:45:42;;;;;;;12.30;7.47;;;;;;;27.52;43.25;99020.53;4843980;29;20264;-83
2023/08/20 00:48:09;;;;;;;14.60;8.35;;;;;;;27.56;43.49;99019.13;4843954;29;20341;-82
2023/08/20 00:50:36;;;;;;;13.10;7.30;;;;;;;27.56;43.40;99016.44;4827629;29;20200;-82
2023/08/20 00:53:02;;;;;;;13.27;7.77;;;;;;;27.62;43.31;99021.06;4843672;29;20204;-82
2023/08/20 00:55:29;;;;;;;12.03;7.50;;;;;;;27.66;42.92;99011.56;4843875;29;20694;-83
2023/08/20 00:57:56;;;;;;;15.80;7.73;;;;;;;27.67;42.79;99013.25;4843939;29;20189;-82
2023/08/20 01:00:24;;;;;;;14.53;8.13;;;;;;;27.70;42.77;99015.56;4843687;29;20192;-82
2023/08/20 01:02:51;;;;;;;11.63;6.70;;;;;;;27.70;42.94;99018.25;4827838;29;20203;-83
2023/08/20 01:05:19;;;;;;;11.80;8.10;;;;;;;27.68;42.52;99020.28;4827505;29;20242;-83
2023/08/20 01:08:33;;;;;;;17.70;8.30;;;;;;;27.71;42.92;99023.44;4827835;29;20190;-83
2023/08/20 01:11:17;;;;;;;13.40;7.73;;;;;;;27.74;42.83;99028.44;4835661;29;20205;-83
2023/08/20 01:13:45;;;;;;;14.03;7.97;;;;;;;27.71;42.80;99023.44;4843743;29;20182;-83
2023/08/20 01:16:12;;;;;;;14.00;7.93;;;;;;;27.69;42.70;99021.94;4843562;29;20221;-83
2023/08/20 01:18:39;;;;;;;14.53;7.37;;;;;;;27.63;42.81;99020.84;4843833;29;20209;-83
2023/08/20 01:21:35;;;;;;;13.97;7.53;;;;;;;27.50;43.11;99011.81;4844201;29;20236;-84
2023/08/20 01:24:34;;;;;;;11.70;7.43;;;;;;;27.32;43.55;99007.66;4827412;29;20204;-83
2023/08/20 01:27:37;;;;;;;12.37;8.00;;;;;;;27.12;43.76;99013.84;4843858;29;20201;-83
2023/08/20 01:30:04;;;;;;;14.03;7.30;;;;;;;27.03;44.34;99015.81;4843396;29;20232;-83
2023/08/20 01:32:32;;;;;;;13.30;7.13;;;;;;;27.02;44.14;99006.03;4843677;29;20655;-83
2023/08/20 01:34:59;;;;;;;10.47;7.40;;;;;;;27.02;44.38;99010.63;4826786;29;20268;-83
2023/08/20 01:37:26;;;;;;;12.67;7.83;;;;;;;27.00;44.36;99008.09;4843310;29;20181;-82
2023/08/20 01:39:52;;;;;;;11.93;7.03;;;;;;;27.00;44.03;99010.78;4843287;29;20196;-83
2023/08/20 01:42:19;;;;;;;11.47;7.07;;;;;;;26.99;44.28;99009.09;4827094;29;20591;-82
2023/08/20 01:44:46;;;;;;;12.47;7.13;;;;;;;27.01;44.21;99006.25;4827105;29;20185;-83
2023/08/20 01:47:12;;;;;;;11.30;7.27;;;;;;;26.94;44.27;99011.53;4827109;29;20178;-82
2023/08/20 01:49:39;;;;;;;13.20;7.37;;;;;;;26.96;44.32;99009.50;4843061;29;20253;-83
2023/08/20 01:52:06;;;;;;;12.77;7.73;;;;;;;26.92;44.78;99008.19;4843162;29;20245;-83
2023/08/20 01:54:32;;;;;;;13.60;6.90;;;;;;;26.95;44.93;99007.00;4842727;29;20213;-82
2023/08/20 01:56:59;;;;;;;14.90;7.30;;;;;;;26.94;44.77;98999.97;4842928;29;20273;-83
2023/08/20 01:59:26;;;;;;;14.90;7.03;;;;;;;26.87;44.65;98996.34;4842881;29;20185;-83
2023/08/20 02:01:53;;;;;;;12.63;7.13;;;;;;;26.90;44.81;98999.50;4842934;29;20181;-83
2023/08/20 02:04:19;;;;;;;10.03;6.33;;;;;;;26.92;44.48;98996.59;4842708;29;20185;-83
2023/08/20 02:06:45;;;;;;;12.83;6.30;;;;;;;26.97;44.77;98995.00;4842886;29;20186;-83
2023/08/20 02:09:12;;;;;;;10.70;6.40;;;;;;;27.01;44.46;99001.72;4841945;29;20232;-83
2023/08/20 02:11:38;;;;;;;10.97;6.80;;;;;;;27.05;44.66;99008.38;4843367;29;20192;-83
2023/08/20 02:14:05;;;;;;;9.43;6.10;;;;;;;27.04;44.60;99001.34;4842936;29;20193;-83
2023/08/20 02:16:32;;;;;;;10.10;6.17;;;;;;;27.06;44.53;99003.81;4826626;29;20307;-83
2023/08/20 02:18:59;;;;;;;10.80;6.50;;;;;;;27.04;44.55;99004.03;4826352;29;20189;-82
2023/08/20 02:21:25;;;;;;;14.53;7.17;;;;;;;26.98;44.32;99006.63;4826747;29;20283;-83
2023/08/20 02:23:52;;;;;;;13.83;6.57;;;;;;;26.97;44.73;99003.09;4842426;29;20220;-83
2023/08/20 02:26:18;;;;;;;11.90;6.30;;;;;;;26.97;44.61;99008.47;4843137;29;20185;-83
2023/08/20 02:28:45;;;;;;;10.20;6.60;;;;;;;26.96;44.93;99006.81;4842534;29;20177;-83
2023/08/20 02:31:11;;;;;;;8.60;6.30;;;;;;;26.93;44.59;99004.50;4842055;29;20241;-83
2023/08/20 02:33:37;;;;;;;12.83;6.63;;;;;;;26.88;44.75;99006.91;4842539;29;20691;-83
2023/08/20 02:36:04;;;;;;;10.40;6.37;;;;;;;26.82;44.33;99000.44;4826370;29;20319;-83
2023/08/20 02:38:31;;;;;;;12.83;6.23;;;;;;;26.80;44.72;99007.84;4842468;29;20186;-83
2023/08/20 02:40:58;;;;;;;14.30;6.67;;;;;;;26.77;44.72;98999.31;4842247;29;20225;-83
2023/08/20 02:43:25;;;;;;;11.13;6.47;;;;;;;26.74;45.15;98999.66;4826284;29;20196;-84
2023/08/20 02:45:51;;;;;;;15.50;7.23;;;;;;;26.71;44.89;99006.25;4842277;29;20181;-83
2023/08/20 02:48:19;;;;;;;12.03;6.07;;;;;;;26.73;44.92;99003.34;4826391;29;20201;-83
2023/08/20 02:50:46;;;;;;;10.70;6.60;;;;;;;26.77;44.88;99004.69;4826263;29;20658;-83
2023/08/20 02:53:12;;;;;;;13.47;6.00;;;;;;;26.79;45.01;99008.88;4842621;29;20325;-83
2023/08/20 02:55:39;;;;;;;11.37;6.07;;;;;;;26.79;45.07;99013.41;4842568;29;20200;-83
2023/08/20 02:58:09;;;;;;;12.03;6.63;;;;;;;26.84;44.69;99009.13;4842310;29;20195;-83
2023/08/20 03:00:36;;;;;;;8.97;5.70;;;;;;;26.85;45.09;99009.97;4842143;29;20631;-82
2023/08/20 03:03:08;;;;;;;10.43;6.37;;;;;;;26.84;44.57;99009.13;4842140;29;20349;-83
2023/08/20 03:05:35;;;;;;;13.30;6.33;;;;;;;26.84;45.02;99009.13;4825936;29;20264;-83
2023/08/20 03:08:03;;;;;;;10.70;6.50;;;;;;;26.80;45.02;99009.72;4842369;29;20189;-83
2023/08/20 03:10:31;;;;;;;8.73;5.63;;;;;;;26.74;45.01;99005.88;4841759;29;20281;-83
2023/08/20 03:12:59;;;;;;;12.80;6.03;;;;;;;26.69;45.04;99002.06;4842206;29;20264;-83
2023/08/20 03:15:26;;;;;;;10.63;6.83;;;;;;;26.65;45.37;99015.03;4842291;29;20245;-83
2023/08/20 03:17:52;;;;;;;8.40;5.67;;;;;;;26.59;45.45;99017.66;4841825;29;20185;-83
2023/08/20 03:20:19;;;;;;;10.70;6.47;;;;;;;26.53;45.33;99010.31;4842827;29;20189;-83
2023/08/20 03:22:46;;;;;;;11.33;6.37;;;;;;;26.54;45.36;99012.84;4846067;29;20279;-83
2023/08/20 03:25:13;;;;;;;10.93;6.10;;;;;;;26.56;45.34;99012.63;4829381;29;20193;-83
2023/08/20 03:27:39;;;;;;;9.67;6.17;;;;;;;26.58;45.42;99015.97;4829350;29;20279;-83
2023/08/20 03:30:07;;;;;;;9.93;6.43;;;;;;;26.59;45.43;99014.97;4845099;29;20315;-83
2023/08/20 03:32:33;;;;;;;14.07;6.27;;;;;;;26.63;45.48;99002.81;4845825;29;20181;-83
2023/08/20 03:35:01;;;;;;;10.80;6.40;;;;;;;26.63;45.42;99010.88;4845433;29;20221;-83
2023/08/20 03:37:28;;;;;;;10.80;5.57;;;;;;;26.59;45.51;99007.75;4845482;29;20185;-83
2023/08/20 03:39:54;;;;;;;9.97;5.93;;;;;;;26.54;45.65;99003.94;4845161;29;20185;-83
2023/08/20 03:42:21;;;;;;;10.57;6.37;;;;;;;26.55;45.45;99008.28;4845625;29;20221;-83
2023/08/20 03:44:47;;;;;;;13.87;6.80;;;;;;;26.56;45.44;99009.94;4845336;29;20264;-82
2023/08/20 03:47:15;;;;;;;11.50;5.80;;;;;;;26.55;45.59;99011.81;4829012;29;20232;-83
2023/08/20 03:49:42;;;;;;;7.70;5.53;;;;;;;26.55;45.40;99008.28;4829012;29;20349;-83
2023/08/20 03:52:08;;;;;;;9.83;5.90;;;;;;;26.54;45.34;99014.69;4845250;29;20325;-83
2023/08/20 03:54:35;;;;;;;9.33;5.87;;;;;;;26.55;45.29;99019.88;4845561;29;20241;-83
2023/08/20 03:57:02;;;;;;;11.23;5.30;;;;;;;26.55;45.40;99011.81;4845679;29;20530;-83
2023/08/20 03:59:30;;;;;;;11.47;6.33;;;;;;;26.59;45.60;99014.97;4844698;29;20198;-83
2023/08/20 04:01:57;;;;;;;11.43;6.13;;;;;;;26.59;45.24;99012.28;4844916;29;20225;-82
2023/08/20 04:04:25;;;;;;;9.40;6.13;;;;;;;26.67;45.41;99004.13;4844853;29;20691;-83
2023/08/20 04:06:51;;;;;;;11.33;5.67;;;;;;;26.68;45.25;99005.78;4845194;29;20233;-82
2023/08/20 04:09:18;;;;;;;10.00;6.13;;;;;;;26.73;45.13;99011.41;4844747;29;20193;-83
2023/08/20 04:11:45;;;;;;;7.57;5.03;;;;;;;26.81;45.20;99011.34;4844569;29;20189;-83
2023/08/20 04:14:11;;;;;;;10.10;5.33;;;;;;;26.77;45.54;99004.69;4845295;29;20197;-83
2023/08/20 04:16:38;;;;;;;8.50;5.00;;;;;;;26.84;45.06;99008.31;4844752;29;20220;-83
2023/08/20 04:19:04;;;;;;;9.20;5.00;;;;;;;26.91;45.01;99006.56;4845005;29;20675;-83
2023/08/20 04:21:31;;;;;;;11.67;5.30;;;;;;;26.91;44.66;99003.88;4828060;29;20189;-83
2023/08/20 04:23:57;;;;;;;9.07;5.60;;;;;;;26.98;44.88;99007.47;4844774;29;20196;-83
2023/08/20 04:26:24;;;;;;;9.70;5.47;;;;;;;27.02;44.58;99008.75;4828477;29;20273;-83
2023/08/20 04:28:51;;;;;;;9.43;5.83;;;;;;;26.76;45.29;99011.88;4845132;29;20189;-83
2023/08/20 04:31:17;;;;;;;10.50;4.83;;;;;;;26.87;45.47;99010.63;4844060;29;20276;-83
2023/08/20 04:33:45;;;;;;;7.87;4.67;;;;;;;27.02;44.86;99014.13;4844444;29;20257;-83
2023/08/20 04:36:12;;;;;;;9.80;4.87;;;;;;;26.91;45.07;99011.09;4844490;29;20276;-83
2023/08/20 04:38:39;;;;;;;15.37;5.37;;;;;;;26.99;45.10;99014.50;4827803;29;20258;-83
2023/08/20 04:41:06;;;;;;;7.27;4.77;;;;;;;26.98;45.42;99012.00;4844274;29;20201;-83
2023/08/20 04:43:32;;;;;;;9.63;5.07;;;;;;;27.07;45.30;99017.06;4828126;29;20188;-83
2023/08/20 04:45:59;;;;;;;11.23;5.40;;;;;;;27.20;44.66;99021.81;4844567;29;20181;-83
2023/08/20 04:48:25;;;;;;;12.00;5.83;;;;;;;27.16;44.85;99025.88;4844504;29;20185;-83
2023/08/20 04:50:52;;;;;;;9.23;4.70;;;;;;;27.23;44.62;99022.25;4844787;29;20224;-83
2023/08/20 04:53:18;;;;;;;8.57;4.73;;;;;;;27.29;44.46;99028.72;4827917;29;20189;-84
2023/08/20 04:55:45;;;;;;;9.20;5.57;;;;;;;27.31;44.23;99024.00;4827304;29;20288;-83
2023/08/20 04:58:11;;;;;;;11.03;5.30;;;;;;;27.26;44.42;99026.41;4827975;29;20193;-83
2023/08/20 05:00:38;;;;;;;10.97;5.33;;;;;;;27.10;44.73;99027.47;4844296;29;20185;-83
2023/08/20 05:03:05;;;;;;;13.23;5.90;;;;;;;27.12;45.16;99024.59;4827720;29;20248;-83
2023/08/20 05:05:31;;;;;;;7.60;4.53;;;;;;;27.10;44.80;99027.47;4843732;29;20181;-83
2023/08/20 05:07:58;;;;;;;8.73;5.60;;;;;;;27.15;44.70;99024.25;4844094;29;20188;-84
2023/08/20 05:10:24;;;;;;;7.30;4.63;;;;;;;27.12;45.02;99032.69;4843652;29;20264;-84
2023/08/20 05:12:51;;;;;;;7.87;5.00;;;;;;;27.14;45.12;99036.84;4827563;29;20189;-84
2023/08/20 05:15:18;;;;;;;10.53;5.50;;;;;;;27.05;45.57;99032.59;4843971;29;20235;-84
2023/08/20 05:17:44;;;;;;;10.33;5.57;;;;;;;27.26;44.70;99029.09;4843665;29;20548;-84
2023/08/20 05:20:11;;;;;;;9.13;4.67;;;;;;;27.30;44.98;99028.56;4843667;29;20185;-84
2023/08/20 05:22:38;;;;;;;9.43;6.10;;;;;;;27.31;44.22;99034.75;4843241;29;20187;-85
2023/08/20 05:25:05;;;;;;;11.37;5.30;;;;;;;27.37;44.63;99034.84;4844102;29;20186;-84
2023/08/20 05:27:31;;;;;;;9.07;5.70;;;;;;;27.36;44.87;99035.84;4843588;29;20177;-85
2023/08/20 05:29:58;;;;;;;10.30;5.57;;;;;;;27.60;44.55;99041.94;4843025;29;20289;-84
2023/08/20 05:32:24;;;;;;;8.63;5.83;;;;;;;27.71;44.14;99034.19;4843499;29;20280;-84
2023/08/20 05:34:51;;;;;;;10.67;5.90;;;;;;;27.75;43.90;99038.16;4843003;29;20213;-84
2023/08/20 05:37:17;;;;;;;9.77;6.00;;;;;;;27.89;43.87;99039.97;4843664;29;20598;-84
2023/08/20 05:39:44;;;;;;;10.67;5.40;;;;;;;27.91;43.16;99039.75;4843366;29;20177;-84
2023/08/20 05:42:11;;;;;;;10.50;5.77;;;;;;;27.85;43.25;99041.41;4842528;29;20200;-84
2023/08/20 05:44:38;;;;;;;13.77;5.57;;;;;;;28.03;43.81;99041.81;4826323;29;20662;-84
2023/08/20 05:47:05;;;;;;;9.93;5.40;;;;;;;27.97;43.57;99039.84;4843467;29;20197;-84
2023/08/20 05:49:32;;;;;;;8.50;5.60;;;;;;;27.96;43.71;99045.44;4843609;29;20257;-84
2023/08/20 05:51:59;;;;;;;8.10;5.23;;;;;;;28.03;43.85;99046.34;4827103;29;20193;-84
2023/08/20 05:54:25;;;;;;;10.43;5.47;;;;;;;28.20;43.21;99039.66;4842725;29;20554;-84
2023/08/20 05:56:52;;;;;;;8.32;5.72;;;;;;;28.33;43.16;99045.13;4842625;29;20197;-84
2023/08/20 05:59:19;;;;;;;9.38;5.20;;;;;;;28.39;42.91;99047.06;4843068;29;20220;-84
2023/08/20 06:01:46;;;;;;;9.38;5.80;;;;;;;28.58;42.21;99054.47;4843162;29;20177;-84
2023/08/20 06:04:13;;;;;;;7.53;4.63;;;;;;;28.57;42.31;99050.09;4843159;29;20692;-85
2023/08/20 06:06:40;;;;;;;9.88;5.30;;;;;;;28.58;42.57;99042.84;4843238;29;20177;-84
2023/08/20 06:09:06;;;;;;;10.93;5.63;;;;;;;28.62;42.17;99054.91;4842920;29;20185;-84
2023/08/20 06:11:33;;;;;;;7.88;5.20;;;;;;;28.50;42.75;99048.38;4843073;29;20228;-84
2023/08/20 06:14:00;;;;;;;7.95;4.97;;;;;;;28.69;41.95;99054.97;4843014;29;20189;-84
2023/08/20 06:16:26;;;;;;;10.13;5.45;;;;;;;28.76;41.89;99058.53;4842808;29;20348;-84
2023/08/20 06:18:53;;;;;;;11.07;5.53;;;;;;;28.93;41.22;99057.22;4843172;29;20181;-84
2023/08/20 06:21:20;;;;;;;10.00;4.45;;;;;;;28.93;41.26;99065.31;4843034;29;20224;-84
2023/08/20 06:23:47;;;;;;;8.10;5.25;;;;;;;28.91;42.13;99068.19;4842382;29;20189;-84
2023/08/20 06:26:13;;;;;;;10.25;5.65;;;;;;;28.88;41.37;99067.78;4826758;29;20193;-84
2023/08/20 06:28:40;;;;;;;9.18;5.78;;;;;;;28.94;41.38;99066.94;4843116;29;20220;-85
2023/08/20 06:31:05;;;;;;;9.38;5.53;;;;;;;28.93;41.79;99059.91;4826038;29;20236;-85
2023/08/20 06:33:32;;;;;;;9.30;5.57;;;;;;;29.01;41.73;99067.84;4842274;29;20189;-85
2023/08/20 06:35:58;;;;;;;8.10;5.55;;;;;;;29.04;41.59;99064.72;4822652;29;20675;-85
2023/08/20 06:38:25;;;;;;;7.55;5.43;;;;;;;28.92;42.01;99069.03;4841875;29;20670;-84
2023/08/20 06:40:53;;;;;;;10.48;5.63;;;;;;;28.93;41.86;99071.50;4826505;29;20204;-85
2023/08/20 06:43:19;;;;;;;9.68;5.05;;;;;;;28.78;41.61;99062.72;4842460;29;20173;-84
2023/08/20 06:45:45;;;;;;;8.13;5.22;;;;;;;28.80;42.19;99065.22;4842556;29;20173;-84
2023/08/20 06:48:11;;;;;;;9.05;5.63;;;;;;;29.01;41.69;99068.66;4825631;29;20569;-84
2023/08/20 06:50:38;;;;;;;11.98;5.97;;;;;;;29.18;41.50;99058.34;4842233;29;20272;-84
2023/08/20 06:53:05;;;;;;;10.77;5.13;;;;;;;29.35;41.89;99059.69;4842452;29;20549;-84
2023/08/20 06:55:31;;;;;;;9.68;5.82;;;;;;;29.54;40.56;99058.94;4843783;29;20678;-85
2023/08/20 06:57:58;;;;;;;11.23;5.88;;;;;;;29.66;41.08;99057.31;4845645;29;20267;-84
2023/08/20 07:00:24;;;;;;;11.63;5.15;;;;;;;29.89;40.77;99058.84;4846208;29;20185;-85
2023/08/20 07:02:54;;;;;;;16.00;6.22;;;;;;;30.27;40.17;99057.19;4846135;29;20220;-85
2023/08/20 07:05:20;;;;;;;9.77;5.43;;;;;;;30.52;39.49;99052.84;4827790;29;20176;-84
2023/08/20 07:07:47;;;;;;;13.30;7.53;;;;;;;30.70;38.84;99055.72;4831149;29;20181;-84
2023/08/20 07:10:14;;;;;;;43.90;18.52;;;;;;;30.87;38.93;99056.13;4845726;29;20242;-84
2023/08/20 07:12:40;;;;;;;79.97;32.88;;;;;;;30.89;38.20;99054.88;4845922;29;20272;-85
2023/08/20 07:15:11;;;;;;;49.53;20.77;;;;;;;30.88;38.82;99055.91;4829629;29;20209;-85
2023/08/20 07:17:38;;;;;;;28.52;14.52;;;;;;;31.28;38.30;99047.66;4846208;29;20184;-85
2023/08/20 07:20:06;;;;;;;12.27;6.75;;;;;;;31.45;37.71;99052.41;4845750;29;20668;-85
2023/08/20 07:22:32;;;;;;;13.13;6.55;;;;;;;31.70;37.61;99057.91;4845178;29;20667;-84
2023/08/20 07:24:59;;;;;;;9.10;5.45;;;;;;;31.45;37.43;99052.41;4845186;29;20260;-86
2023/08/20 07:27:26;;;;;;;16.65;8.63;;;;;;;31.71;37.96;99054.13;4819062;29;20326;-87
2023/08/20 07:29:52;;;;;;;11.60;6.35;;;;;;;31.79;37.18;99045.75;4827982;29;20205;-87
2023/08/20 07:32:19;;;;;;;12.35;6.13;;;;;;;31.65;36.92;99052.31;4820473;29;20627;-88
2023/08/20 07:34:45;;;;;;;15.73;8.05;;;;;;;31.91;36.79;99049.44;4845645;29;20232;-86
2023/08/20 07:37:12;;;;;;;23.75;11.00;;;;;;;32.12;36.42;99054.53;4844093;29;20178;-88
2023/08/20 07:39:40;;;;;;;8.18;4.90;;;;;;;32.33;36.33;99052.47;4830070;29;20190;-88
2023/08/20 07:42:07;;;;;;;10.40;5.75;;;;;;;32.21;35.87;99053.19;4828171;29;20197;-86
2023/08/20 07:44:34;;;;;;;9.10;4.75;;;;;;;32.23;35.48;99055.69;4830187;29;20220;-86
2023/08/20 07:47:00;;;;;;;9.75;4.65;;;;;;;32.13;37.22;99056.16;4826420;29;20327;-87
2023/08/20 07:49:27;;;;;;;24.73;12.80;;;;;;;32.19;35.90;99055.28;4844462;29;20193;-86
2023/08/20 07:51:55;;;;;;;39.72;19.40;;;;;;;32.15;36.29;99045.91;4844875;29;20189;-88
2023/08/20 07:54:22;;;;;;;15.68;7.28;;;;;;;31.99;35.77;99046.50;4826648;29;20212;-87
2023/08/20 07:56:49;;;;;;;11.43;4.97;;;;;;;32.05;35.98;99034.75;4834885;29;20196;-86
2023/08/20 07:59:16;;;;;;;12.60;6.53;;;;;;;32.22;35.51;99035.88;4829196;29;20581;-87
2023/08/20 08:01:43;;;;;;;35.97;16.48;;;;;;;32.28;35.34;99033.31;4845127;29;20309;-86
2023/08/20 08:04:09;;;;;;;17.55;8.80;;;;;;;32.32;35.06;99029.09;4826419;29;20550;-87
2023/08/20 08:06:36;;;;;;;8.20;4.18;;;;;;;32.64;34.35;99022.56;4839770;29;20186;-87
2023/08/20 08:09:21;;;;;;;11.18;4.53;;;;;;;32.96;33.40;99031.41;4828762;29;20263;-87
2023/08/20 08:11:49;;;;;;;29.92;12.48;;;;;;;33.06;33.55;99015.44;4842814;29;20177;-88
2023/08/20 08:14:15;;;;;;;42.72;16.67;;;;;;;33.31;33.19;99016.97;4833343;29;20185;-86
2023/08/20 08:16:42;;;;;;;15.90;8.73;;;;;;;33.83;33.24;99012.69;4842638;29;20283;-87
2023/08/20 08:19:09;;;;;;;23.58;11.02;;;;;;;34.11;32.46;99009.34;4836109;29;20221;-88
2023/08/20 08:21:36;;;;;;;15.98;7.20;;;;;;;34.10;32.23;99012.28;4825044;29;20268;-88
2023/08/20 08:24:03;;;;;;;7.18;2.97;;;;;;;34.31;31.07;99012.56;4843458;29;20257;-88
2023/08/20 08:26:31;;;;;;;8.63;3.80;;;;;;;34.29;30.83;99011.13;4826949;29;20234;-87
2023/08/20 08:28:58;;;;;;;5.55;3.55;;;;;;;34.53;31.30;99004.63;4829542;29;20189;-88
2023/08/20 08:31:25;;;;;;;8.95;4.90;;;;;;;34.91;31.13;99004.97;4835460;29;20233;-87
2023/08/20 08:33:51;;;;;;;5.63;2.95;;;;;;;35.07;30.64;99000.69;4824867;29;20193;-89
2023/08/20 08:36:18;;;;;;;4.25;2.60;;;;;;;35.06;29.94;99010.75;4824633;29;20314;-87
2023/08/20 08:38:46;;;;;;;5.13;2.80;;;;;;;35.37;30.25;99009.47;4832397;29;20206;-87
2023/08/20 08:41:13;;;;;;;7.00;2.78;;;;;;;35.72;29.01;99001.16;4828414;29;20574;-86
2023/08/20 08:43:40;;;;;;;8.85;4.28;;;;;;;35.87;29.27;98997.88;4843277;29;20201;-88
2023/08/20 08:46:13;;;;;;;6.40;3.20;;;;;;;35.74;29.14;98994.41;4843194;29;20284;-85
2023/08/20 08:48:47;;;;;;;4.32;2.40;;;;;;;36.12;30.10;99006.50;4842017;29;20551;-86
2023/08/20 08:51:13;;;;;;;4.95;3.15;;;;;;;36.21;28.18;99002.31;4827458;29;20204;-87
2023/08/20 08:53:44;;;;;;;6.22;3.10;;;;;;;36.25;29.38;99001.53;4832870;29;20182;-86
2023/08/20 08:56:11;;;;;;;7.22;2.72;;;;;;;36.27;27.71;99002.13;4809911;29;20210;-86
2023/08/20 08:58:38;;;;;;;4.63;2.65;;;;;;;36.42;28.08;98990.63;4835246;29;20197;-86
2023/08/20 09:01:04;;;;;;;7.00;2.60;;;;;;;36.73;28.85;98992.72;4835104;29;20224;-86
2023/08/20 09:03:31;;;;;;;5.00;2.75;;;;;;;36.90;28.55;98988.03;4844247;29;20188;-86
2023/08/20 09:06:02;;;;;;;4.38;2.63;;;;;;;37.04;27.87;98984.94;4835609;29;20225;-86
2023/08/20 09:08:31;;;;;;;7.10;3.00;;;;;;;37.21;26.35;98988.44;4803396;29;20200;-86
2023/08/20 09:11:00;;;;;;;3.95;2.50;;;;;;;37.25;27.26;98984.09;4837064;29;20197;-86
2023/08/20 09:13:37;;;;;;;6.28;2.65;;;;;;;37.22;26.52;98990.06;4812790;29;20688;-86
2023/08/20 09:16:10;;;;;;;4.88;2.80;;;;;;;37.56;26.69;98980.63;4835511;29;20625;-86
2023/08/20 09:18:44;;;;;;;6.90;2.33;;;;;;;37.78;27.07;98977.84;4836426;29;20221;-85
2023/08/20 09:21:12;;;;;;;5.85;2.10;;;;;;;37.62;26.18;98984.25;4818184;29;20652;-85
2023/08/20 09:23:38;;;;;;;5.38;2.25;;;;;;;37.69;26.01;98988.41;4833462;29;20200;-86
2023/08/20 09:26:07;;;;;;;10.23;2.80;;;;;;;37.60;27.65;98980.94;4825964;29;20190;-86
2023/08/20 09:28:45;;;;;;;4.85;2.53;;;;;;;37.71;26.74;98956.13;4815229;29;20277;-86
2023/08/20 09:31:13;;;;;;;3.88;2.15;;;;;;;37.66;27.09;98968.97;4829207;29;20208;-86
2023/08/20 09:33:56;;;;;;;5.25;2.45;;;;;;;37.91;25.69;98956.38;4818884;29;20643;-86
2023/08/20 09:36:35;;;;;;;5.43;1.92;;;;;;;38.29;25.98;98959.94;4838079;29;20211;-88
2023/08/20 09:39:04;;;;;;;5.60;2.08;;;;;;;38.51;24.39;98963.38;4833173;29;20639;-89
2023/08/20 09:41:35;;;;;;;6.40;1.75;;;;;;;38.18;23.92;98950.00;4822827;29;20189;-89
2023/08/20 09:44:04;;;;;;;4.30;2.20;;;;;;;38.17;24.59;98967.50;4801563;29;20201;-89
2023/08/20 09:46:32;;;;;;;13.82;7.10;;;;;;;38.02;25.45;98966.31;4833478;29;20189;-89
2023/08/20 09:48:59;;;;;;;3.83;1.95;;;;;;;38.18;24.38;98960.94;4820602;29;20205;-89
2023/08/20 09:51:28;;;;;;;25.83;11.30;;;;;;;38.38;24.36;98950.16;4835966;29;20193;-87
2023/08/20 09:54:20;;;;;;;6.63;2.22;;;;;;;38.48;24.47;98951.03;4843702;29;20792;-87
2023/08/20 09:56:53;;;;;;;3.85;2.03;;;;;;;38.70;23.67;98948.13;4815050;29;20246;-87
2023/08/20 09:59:21;;;;;;;4.55;1.92;;;;;;;38.87;24.50;98942.47;4830036;29;20190;-88
2023/08/20 10:01:50;;;;;;;5.13;2.10;;;;;;;39.04;23.80;98943.91;4834860;29;20686;-88
2023/08/20 10:04:18;;;;;;;7.85;2.42;;;;;;;39.13;24.27;98928.56;4835787;29;20631;-88
2023/08/20 10:06:44;;;;;;;3.67;1.90;;;;;;;39.02;23.57;98928.84;4834766;29;20185;-88
2023/08/20 10:09:11;;;;;;;3.28;1.95;;;;;;;39.13;23.39;98931.31;4820977;29;20208;-90
2023/08/20 10:11:38;;;;;;;4.90;1.92;;;;;;;39.24;23.32;98938.50;4821863;29;20193;-87
2023/08/20 10:14:05;;;;;;;4.88;1.90;;;;;;;39.30;23.30;98940.19;4820628;29;20265;-88
2023/08/20 10:16:36;;;;;;;4.22;2.45;;;;;;;39.47;22.75;98934.44;4827294;29;20552;-88
2023/08/20 10:19:11;;;;;;;4.13;1.80;;;;;;;39.61;22.85;98937.47;4834610;29;20633;-87
2023/08/20 10:21:44;;;;;;;4.93;2.00;;;;;;;39.63;22.50;98924.31;4832252;29;20240;-88
2023/08/20 10:24:18;;;;;;;3.75;2.03;;;;;;;39.76;22.68;98923.78;4830925;29;20204;-88
2023/08/20 10:26:47;;;;;;;3.90;2.15;;;;;;;39.73;23.18;98925.16;4819176;29;20272;-87
2023/08/20 10:29:43;;;;;;;8.73;4.30;;;;;;;39.45;23.14;98922.09;4832060;29;20189;-87
2023/08/20 10:32:11;;;;;;;7.35;2.47;;;;;;;39.72;22.98;98908.97;4827156;29;20233;-88
2023/08/20 10:34:42;;;;;;;3.53;2.03;;;;;;;39.69;22.28;98920.50;4831617;29;20541;-87
2023/08/20 10:37:14;;;;;;;3.95;1.85;;;;;;;39.66;22.92;98918.28;4815406;29;20192;-87
2023/08/20 10:39:46;;;;;;;3.38;1.90;;;;;;;39.72;23.50;98904.31;4813866;29;20190;-86
2023/08/20 10:42:22;;;;;;;6.03;2.22;;;;;;;39.84;22.80;98909.50;4830650;29;20181;-88
2023/08/20 10:45:01;;;;;;;4.07;2.20;;;;;;;39.62;22.71;98903.47;4831125;29;20189;-87
2023/08/20 10:47:45;;;;;;;2.97;2.10;;;;;;;39.34;23.06;98891.06;4830247;29;20181;-87
2023/08/20 10:50:16;;;;;;;5.53;1.80;;;;;;;39.75;23.02;98897.44;4831118;29;20216;-87
2023/08/20 10:52:49;;;;;;;3.72;2.00;;;;;;;39.96;22.98;98892.75;4818994;29;20197;-87
2023/08/20 10:55:15;;;;;;;7.65;2.33;;;;;;;40.23;22.69;98885.84;4837556;29;20597;-88
2023/08/20 10:57:42;;;;;;;5.63;2.28;;;;;;;39.89;22.99;98885.63;4838765;29;20263;-87
2023/08/20 11:00:11;;;;;;;6.43;1.80;;;;;;;39.76;22.78;98885.34;4836424;29;20189;-88
2023/08/20 11:02:39;;;;;;;4.18;2.15;;;;;;;39.96;22.31;98882.59;4827158;29;20228;-87
2023/08/20 11:05:17;;;;;;;4.53;2.53;;;;;;;39.84;22.91;98876.56;4811689;29;20189;-86
2023/08/20 11:07:48;;;;;;;4.28;1.98;;;;;;;39.66;23.44;98869.72;4817892;29;20195;-89
2023/08/20 11:10:16;;;;;;;3.92;2.45;;;;;;;39.68;23.54;98873.00;4830897;29;20224;-88
2023/08/20 11:12:49;;;;;;;5.35;1.98;;;;;;;40.30;22.95;98874.59;4834401;29;20675;-86
2023/08/20 11:15:15;;;;;;;3.55;2.03;;;;;;;40.30;22.62;98863.59;4831538;29;20209;-86
2023/08/20 11:17:45;;;;;;;5.15;2.20;;;;;;;39.60;22.25;98859.81;4816372;29;20205;-90
2023/08/20 11:20:14;;;;;;;5.47;2.40;;;;;;;39.50;23.16;98853.50;4826019;29;20593;-88
2023/08/20 11:22:41;;;;;;;7.13;2.75;;;;;;;40.16;22.75;98851.53;4809814;29;20254;-87
2023/08/20 11:25:12;;;;;;;4.75;1.65;;;;;;;40.20;21.60;98847.94;4832722;29;20194;-91
2023/08/20 11:27:43;;;;;;;4.00;2.00;;;;;;;40.23;22.52;98852.06;4834711;29;20654;-88
2023/08/20 11:30:13;;;;;;;5.30;2.20;;;;;;;40.82;21.96;98847.44;4815780;29;20658;-88
2023/08/20 11:32:39;;;;;;;3.40;1.80;;;;;;;41.30;20.80;98832.06;4833284;29;20250;-88
2023/08/20 11:35:07;;;;;;;7.60;2.10;;;;;;;41.39;20.73;98822.06;4832452;29;20217;-86